This is the latest recevied weather packets stored in our database for station/object SR6NWB-11. If no packets are shown the sender has not sent any weather packets the latest 1 day(s).
| Time | Temp. | Humidity | Pressure | Rain* | Wind** | Luminosity | Snow |
|---|---|---|---|---|---|---|---|
| 1778073023 | 18.33° C | 54% | 1011.7 hPa | 0 mm | - | - | - |
| 1778057312 | 12.78° C | 85% | 1011.1 hPa | 0 mm | - | - | - |
| 1778046551 | 11.67° C | 94% | 1009.9 hPa | 0 mm | - | - | - |
| 1778045022 | 11.11° C | 95% | 1009.8 hPa | 0 mm | - | - | - |
| 1778042802 | 11.67° C | 97% | 1009.7 hPa | 0 mm | - | - | - |
| 1778041132 | 11.11° C | 96% | 1009.5 hPa | 0 mm | - | - | - |
| 1778040587 | 11.11° C | 95% | 1009.6 hPa | 0 mm | - | - | - |
| 1778039552 | 11.67° C | 92% | 1009.4 hPa | 0 mm | - | - | - |
| 1778039067 | 11.67° C | 90% | 1009.3 hPa | 0 mm | - | - | - |
| 1778036847 | 11.67° C | 89% | 1009.4 hPa | 0 mm | - | - | - |
| 1778036250 | 11.67° C | 89% | 1009.5 hPa | 0 mm | - | - | - |
| 1778035759 | 11.67° C | 90% | 1009.5 hPa | 0 mm | - | - | - |
| 1778035232 | 11.67° C | 91% | 1009.5 hPa | 0 mm | - | - | - |
| 1778034112 | 11.67° C | 92% | 1009.5 hPa | 0 mm | - | - | - |
| 1778032462 | 11.67° C | 93% | 1010.1 hPa | 0 mm | - | - | - |
| 1778031327 | 11.67° C | 91% | 1010.1 hPa | 0 mm | - | - | - |
| 1778028148 | 12.22° C | 92% | 1010.2 hPa | 0 mm | - | - | - |
| 1778024898 | 11.67° C | 94% | 1010.5 hPa | 0 mm | - | - | - |
| 1778023308 | 12.78° C | 93% | 1010.6 hPa | 0 mm | - | - | - |
| 1778022228 | 12.22° C | 94% | 1010.4 hPa | 0 mm | - | - | - |
| 1778015253 | 12.78° C | 91% | 1011.4 hPa | 0 mm | - | - | - |
| 1778011433 | 13.33° C | 89% | 1011.6 hPa | 0 mm | - | - | - |
| 1778009773 | 13.33° C | 86% | 1011.6 hPa | 0 mm | - | - | - |
| 1778002028 | 16.67° C | 65% | 1012 hPa | 0 mm | - | - | - |
* Rain latest hour (hover to see other rain measurements)
** Current wind speed in m/s (hover to see current wind gust speed)